메인 페이지
METAR-TAF:

METAR-TAF

공항 :

Saratoga, 와이오밍, 미국

위도: 41-26-41N, 경도: 106-49-25W, 고도: 2137m

현재 날씨관측

예보는 13분 전, 16:15시(UTC)에 발표되었습니다.
남남동11kt, 순간 최대 풍속 16kt
온도 0°C
습도 55%
기압 1032 hPa
시정: 16.1km
맑음

METAR: KSAA 141615Z AUTO 16011G16KT 10SM CLR 00/M08 A3047 RMK AO2

시각: 09:28 (16:28 UTC)


TAF: 누락

4,000개 이상의 공항 관측 자료 및 예보 (METAR 및 TAF 보고).

지도상에서 검색 가능한 기상관측소가 노란 점과 빨간 점으로 표시되어 있습니다.

기상관측소 명을 보려면 표시 위로 마우스를 이동하세요.

날씨 관측과 예보를 보려면 클릭하세요.

지도 변경 : 확대하려면 엑스 표시가 있는 녹색 버튼, 축소하려면 빼기 표시가 있는 녹색 버튼, 다음 페이지의 지도를 보려면 녹색 화살표를 클릭하세요.


METAR-TAF: